createdAt,value
2018-06-03T00:00:15.329Z,37.37
2018-06-03T00:00:49.215Z,38.00
2018-06-03T00:01:23.437Z,39.30
2018-06-03T00:01:56.901Z,37.37
2018-06-03T00:02:31.142Z,37.73
2018-06-03T00:03:04.613Z,35.17
2018-06-03T00:03:37.746Z,37.27
2018-06-03T00:04:11.243Z,35.50
2018-06-03T00:04:45.480Z,36.13
2018-06-03T00:05:18.978Z,35.73
2018-06-03T00:05:52.640Z,36.83
2018-06-03T00:06:27.003Z,36.80
2018-06-03T00:07:01.243Z,37.33
2018-06-03T00:07:34.703Z,34.53
2018-06-03T00:08:08.181Z,36.70
2018-06-03T00:08:41.637Z,36.47
2018-06-03T00:09:15.154Z,35.30
2018-06-03T00:09:48.729Z,35.40
2018-06-03T00:10:22.409Z,35.80
2018-06-03T00:10:55.861Z,37.30
2018-06-03T00:11:29.349Z,36.47
2018-06-03T00:12:02.819Z,37.00
2018-06-03T00:12:36.287Z,36.80
2018-06-03T00:13:10.520Z,35.97
2018-06-03T00:13:43.989Z,36.80
2018-06-03T00:14:17.475Z,35.90
2018-06-03T00:14:50.935Z,37.90
2018-06-03T00:15:25.177Z,38.93
2018-06-03T00:15:58.633Z,39.27
2018-06-03T00:16:32.915Z,38.13
2018-06-03T00:17:06.505Z,37.10
2018-06-03T00:17:43.028Z,38.63
2018-06-03T00:18:16.496Z,37.90
2018-06-03T00:18:49.979Z,40.43
2018-06-03T00:19:23.480Z,39.93
2018-06-03T00:19:56.937Z,39.47
2018-06-03T00:22:33.883Z,38.80
2018-06-03T00:23:06.961Z,39.50
2018-06-03T00:23:40.335Z,41.43
2018-06-03T00:24:13.593Z,41.63
2018-06-03T00:24:46.871Z,41.50
2018-06-03T00:25:20.155Z,40.23
2018-06-03T00:25:53.455Z,39.93
2018-06-03T00:26:26.719Z,41.17
2018-06-03T00:27:00.023Z,42.70
2018-06-03T00:27:33.685Z,42.30
2018-06-03T00:28:07.043Z,42.57
2018-06-03T00:28:40.327Z,41.67
2018-06-03T00:29:13.629Z,41.20
2018-06-03T00:29:46.989Z,41.50
2018-06-03T00:30:20.331Z,43.90
2018-06-03T00:30:53.744Z,41.67
2018-06-03T00:31:27.049Z,44.40
2018-06-03T00:32:00.353Z,43.90
2018-06-03T00:32:33.733Z,43.27
2018-06-03T00:33:07.072Z,43.43
2018-06-03T00:33:40.382Z,41.97
2018-06-03T00:34:13.680Z,43.20
2018-06-03T00:34:47.008Z,42.97
2018-06-03T00:35:20.629Z,42.80
2018-06-03T00:36:05.510Z,44.43
2018-06-03T00:36:46.427Z,43.17
2018-06-03T00:37:19.757Z,42.20
2018-06-03T00:37:53.283Z,43.90
2018-06-03T00:38:26.591Z,46.30
2018-06-03T00:38:59.939Z,45.67
2018-06-03T00:39:33.219Z,44.70
2018-06-03T00:40:06.698Z,47.67
2018-06-03T00:40:40.044Z,50.80
2018-06-03T00:41:13.497Z,48.70
2018-06-03T00:41:46.807Z,48.00
2018-06-03T00:42:20.456Z,50.00
2018-06-03T00:42:53.750Z,50.60
2018-06-03T00:43:27.047Z,50.00
2018-06-03T00:44:00.328Z,50.30
2018-06-03T00:44:33.891Z,50.38
2018-06-03T00:45:07.196Z,51.00
2018-06-03T00:45:40.516Z,52.63
2018-06-03T00:46:13.820Z,51.97
2018-06-03T00:46:47.151Z,53.47
2018-06-03T00:47:20.457Z,53.03
2018-06-03T00:47:53.736Z,51.00
2018-06-03T00:48:27.011Z,53.63
2018-06-03T00:49:00.295Z,55.67
2018-06-03T00:49:33.605Z,55.33
2018-06-03T00:50:06.898Z,53.10
2018-06-03T00:50:40.226Z,52.77
2018-06-03T00:51:13.521Z,51.90
2018-06-03T00:51:46.780Z,52.87
2018-06-03T00:52:20.082Z,54.97
2018-06-03T00:52:53.395Z,52.80
2018-06-03T00:53:26.670Z,52.70
2018-06-03T00:53:59.950Z,52.40
2018-06-03T00:54:33.557Z,52.17
2018-06-03T00:55:13.965Z,54.17
2018-06-03T00:55:47.282Z,55.10
2018-06-03T00:56:32.130Z,54.40
2018-06-03T00:57:11.162Z,53.03
2018-06-03T00:57:44.493Z,51.80
2018-06-03T00:58:17.797Z,52.77
2018-06-03T00:58:51.097Z,52.50
2018-06-03T00:59:24.438Z,53.03
2018-06-03T00:59:57.716Z,52.70
2018-06-03T01:00:31.014Z,50.23
2018-06-03T01:01:04.410Z,51.33
2018-06-03T01:01:37.709Z,53.90
2018-06-03T01:02:10.990Z,53.10
2018-06-03T01:02:44.916Z,52.80
2018-06-03T01:03:17.983Z,52.73
2018-06-03T01:03:51.328Z,52.50
2018-06-03T01:04:24.642Z,52.00
2018-06-03T01:04:57.952Z,51.53
2018-06-03T01:05:31.262Z,53.73
2018-06-03T01:06:04.600Z,52.33
2018-06-03T01:06:37.658Z,52.10
2018-06-03T01:07:10.932Z,51.93
2018-06-03T01:07:44.229Z,51.57
2018-06-03T01:08:17.345Z,52.80
2018-06-03T01:08:50.635Z,52.63
2018-06-03T01:09:23.987Z,50.93
2018-06-03T01:09:57.255Z,51.33
2018-06-03T01:10:30.549Z,52.80
2018-06-03T01:11:03.804Z,53.70
2018-06-03T01:11:37.093Z,54.50
2018-06-03T01:12:10.372Z,54.53
2018-06-03T01:12:43.672Z,52.40
2018-06-03T01:13:16.972Z,52.67
2018-06-03T01:13:50.251Z,52.70
2018-06-03T01:14:23.557Z,52.70
2018-06-03T01:14:57.183Z,54.87
2018-06-03T01:15:30.229Z,54.70
2018-06-03T01:16:03.505Z,52.27
2018-06-03T01:16:36.797Z,55.47
2018-06-03T01:17:10.078Z,55.30
2018-06-03T01:17:43.359Z,54.13
2018-06-03T01:18:16.695Z,57.80
2018-06-03T01:18:49.979Z,57.07
2018-06-03T01:19:23.307Z,54.40
2018-06-03T01:19:56.617Z,56.83
2018-06-03T01:20:29.903Z,58.30
2018-06-03T01:21:03.203Z,56.47
2018-06-03T01:21:36.481Z,55.93
2018-06-03T01:22:09.810Z,58.40
2018-06-03T01:22:43.127Z,57.87
2018-06-03T01:23:16.383Z,57.80
2018-06-03T01:23:49.653Z,59.43
2018-06-03T01:24:22.964Z,58.60
2018-06-03T01:24:56.221Z,57.93
2018-06-03T01:25:29.521Z,61.90
2018-06-03T01:26:02.807Z,59.20
2018-06-03T01:26:36.061Z,61.70
2018-06-03T01:27:10.079Z,59.60
2018-06-03T01:27:43.381Z,61.77
2018-06-03T01:28:16.639Z,59.60
2018-06-03T01:28:49.927Z,59.90
2018-06-03T01:29:23.211Z,61.70
2018-06-03T01:29:56.487Z,62.63
2018-06-03T01:30:29.790Z,62.57
2018-06-03T01:31:03.074Z,61.83
2018-06-03T01:31:36.709Z,60.27
2018-06-03T01:32:10.020Z,60.60
2018-06-03T01:32:43.369Z,58.13
2018-06-03T01:33:16.676Z,62.17
2018-06-03T01:33:49.742Z,61.77
2018-06-03T01:34:23.032Z,61.50
2018-06-03T01:34:56.301Z,62.73
2018-06-03T01:35:29.614Z,63.27
2018-06-03T01:36:02.906Z,64.50
2018-06-03T01:36:36.169Z,63.10
2018-06-03T01:37:09.437Z,61.67
2018-06-03T01:37:43.043Z,61.57
2018-06-03T01:38:16.329Z,61.90
2018-06-03T01:38:49.609Z,64.23
2018-06-03T01:39:22.885Z,63.73
2018-06-03T01:39:56.155Z,61.60
2018-06-03T01:40:29.456Z,65.57
2018-06-03T01:41:02.718Z,63.10
2018-06-03T01:41:36.093Z,62.70
2018-06-03T01:42:09.382Z,61.57
2018-06-03T01:42:42.697Z,63.77
2018-06-03T01:43:16.016Z,64.50
2018-06-03T01:43:49.280Z,65.00
2018-06-03T01:44:22.554Z,63.00
2018-06-03T01:44:55.873Z,63.03
2018-06-03T01:45:29.223Z,60.57
2018-06-03T01:46:02.864Z,60.57
2018-06-03T01:46:36.132Z,61.80
2018-06-03T01:47:09.424Z,63.93
2018-06-03T01:47:42.702Z,61.57
2018-06-03T01:48:16.030Z,63.77
2018-06-03T01:48:49.344Z,63.70
2018-06-03T01:49:22.643Z,62.73
2018-06-03T01:49:55.928Z,64.00
2018-06-03T01:50:29.259Z,64.30
2018-06-03T01:51:02.536Z,62.77
2018-06-03T01:51:35.821Z,63.97
2018-06-03T01:52:09.096Z,64.87
2018-06-03T01:52:42.358Z,62.77
2018-06-03T01:53:15.647Z,62.20
2018-06-03T01:53:48.959Z,63.33
2018-06-03T01:54:22.240Z,62.20
2018-06-03T01:54:55.518Z,64.77
2018-06-03T01:55:29.122Z,63.50
2018-06-03T01:56:02.426Z,64.50
2018-06-03T01:56:35.736Z,62.13
2018-06-03T01:57:09.048Z,64.07
2018-06-03T01:57:42.347Z,62.67
2018-06-03T01:58:15.646Z,62.13
2018-06-03T01:58:49.045Z,66.60
2018-06-03T01:59:22.512Z,63.23
2018-06-03T01:59:55.858Z,61.77
2018-06-03T02:00:29.179Z,63.27
2018-06-03T02:01:02.492Z,64.70
2018-06-03T02:01:35.790Z,66.03
2018-06-03T02:02:09.070Z,68.40
2018-06-03T02:02:42.393Z,72.57
2018-06-03T02:03:15.680Z,71.30
2018-06-03T02:03:49.054Z,68.30
2018-06-03T02:04:22.355Z,71.93
2018-06-03T02:04:55.634Z,68.20
2018-06-03T02:05:29.255Z,71.00
2018-06-03T02:06:02.534Z,70.87
2018-06-03T02:06:35.783Z,72.43
2018-06-03T02:07:09.058Z,71.50
2018-06-03T02:07:42.382Z,69.23
2018-06-03T02:08:15.683Z,71.30
2018-06-03T02:08:49.016Z,73.10
2018-06-03T02:09:22.344Z,70.53
2018-06-03T02:09:55.636Z,76.30
2018-06-03T02:10:29.278Z,73.63
2018-06-03T02:11:02.560Z,73.93
2018-06-03T02:11:35.848Z,73.30
2018-06-03T02:12:09.178Z,75.60
2018-06-03T02:12:42.468Z,76.63
2018-06-03T02:13:15.746Z,77.63
2018-06-03T02:15:25.576Z,70.50
2018-06-03T02:15:58.885Z,76.17
2018-06-03T02:16:32.166Z,73.80
2018-06-03T02:17:05.960Z,78.27
2018-06-03T02:17:39.282Z,75.50
2018-06-03T02:18:12.558Z,79.57
2018-06-03T02:18:45.846Z,83.30
2018-06-03T02:19:19.186Z,82.07
2018-06-03T02:19:52.496Z,82.07
2018-06-03T02:20:26.506Z,80.13
2018-06-03T02:20:59.801Z,79.70
2018-06-03T02:21:33.128Z,77.77
2018-06-03T02:22:06.430Z,81.70
2018-06-03T02:22:39.730Z,79.33
2018-06-03T02:23:12.988Z,80.97
2018-06-03T02:23:46.400Z,76.80
2018-06-03T02:24:19.704Z,80.93
2018-06-03T02:24:53.032Z,82.57
2018-06-03T02:25:26.317Z,82.67
2018-06-03T02:25:59.650Z,80.77
2018-06-03T02:26:32.952Z,82.53
2018-06-03T02:27:06.248Z,78.60
2018-06-03T02:27:39.580Z,77.20
2018-06-03T02:28:12.850Z,79.57
2018-06-03T02:28:46.130Z,81.20
2018-06-03T02:29:19.478Z,79.73
2018-06-03T02:29:52.765Z,78.70
2018-06-03T02:30:26.048Z,84.53
2018-06-03T02:30:59.364Z,80.27
2018-06-03T02:31:32.666Z,78.40
2018-06-03T02:32:06.574Z,80.07
2018-06-03T02:32:39.888Z,82.60
2018-06-03T02:33:13.184Z,77.17
2018-06-03T02:33:46.482Z,78.70
2018-06-03T02:34:19.794Z,79.87
2018-06-03T02:34:53.074Z,79.20
2018-06-03T02:35:26.603Z,81.30
2018-06-03T02:35:59.929Z,79.20
2018-06-03T02:36:33.200Z,80.87
2018-06-03T02:37:06.510Z,83.30
2018-06-03T02:37:39.840Z,83.80
2018-06-03T02:38:13.148Z,81.47
2018-06-03T02:38:46.756Z,81.70
2018-06-03T02:39:20.076Z,82.40
2018-06-03T02:39:53.366Z,80.43
2018-06-03T02:40:26.655Z,79.93
2018-06-03T02:40:59.980Z,81.20
2018-06-03T02:41:33.277Z,79.13
2018-06-03T02:42:06.591Z,81.00
2018-06-03T02:42:39.854Z,82.10
2018-06-03T02:43:13.176Z,80.37
2018-06-03T02:43:46.814Z,78.00
2018-06-03T02:44:20.111Z,76.60
2018-06-03T02:44:53.458Z,78.20
2018-06-03T02:45:26.761Z,80.43
2018-06-03T02:46:00.049Z,78.03
2018-06-03T02:46:33.323Z,74.17
2018-06-03T02:47:06.665Z,77.03
2018-06-03T02:47:40.044Z,78.20
2018-06-03T02:48:13.343Z,76.40
2018-06-03T02:48:46.619Z,75.23
2018-06-03T02:49:19.892Z,74.73
2018-06-03T02:49:53.211Z,74.50
2018-06-03T02:50:26.618Z,72.97
2018-06-03T02:50:59.661Z,73.47
2018-06-03T02:51:32.946Z,74.27
2018-06-03T02:52:06.248Z,75.93
2018-06-03T02:52:39.530Z,74.03
2018-06-03T02:53:12.818Z,77.20
2018-06-03T02:53:46.121Z,73.50
2018-06-03T02:54:19.438Z,71.97
2018-06-03T02:54:52.748Z,73.40
2018-06-03T02:55:26.062Z,77.17
2018-06-03T02:55:59.350Z,74.70
2018-06-03T02:56:32.626Z,74.43
2018-06-03T02:57:05.906Z,75.40
2018-06-03T02:57:39.202Z,74.13
2018-06-03T02:58:12.515Z,74.30
2018-06-03T02:58:45.812Z,73.40
2018-06-03T02:59:19.112Z,75.50
2018-06-03T02:59:52.391Z,74.80
2018-06-03T03:00:26.018Z,72.20
2018-06-03T03:00:59.306Z,70.07
2018-06-03T03:01:32.596Z,73.90
2018-06-03T03:02:05.905Z,72.53
2018-06-03T03:02:39.259Z,75.10
2018-06-03T03:03:12.553Z,74.27
2018-06-03T03:03:45.862Z,73.90
2018-06-03T03:04:19.158Z,74.00
2018-06-03T03:04:52.442Z,73.50
2018-06-03T03:05:26.094Z,73.93
2018-06-03T03:05:59.374Z,70.17
2018-06-03T03:06:32.674Z,69.70
2018-06-03T03:07:05.976Z,72.50
2018-06-03T03:07:39.358Z,71.97
2018-06-03T03:08:12.738Z,71.80
2018-06-03T03:08:46.055Z,71.03
2018-06-03T03:09:19.357Z,73.80
2018-06-03T03:09:52.682Z,66.87
2018-06-03T03:10:26.028Z,68.50
2018-06-03T03:10:59.655Z,68.53
2018-06-03T03:11:32.930Z,68.73
2018-06-03T03:12:06.230Z,70.43
2018-06-03T03:12:39.528Z,72.50
2018-06-03T03:13:12.835Z,72.33
2018-06-03T03:13:45.906Z,71.53
2018-06-03T03:14:19.232Z,73.03
2018-06-03T03:14:52.578Z,74.17
2018-06-03T03:15:25.892Z,70.30
2018-06-03T03:15:59.176Z,71.73
2018-06-03T03:16:32.783Z,74.27
2018-06-03T03:17:06.106Z,67.50
2018-06-03T03:17:39.406Z,68.80
2018-06-03T03:18:12.683Z,68.30
2018-06-03T03:18:46.008Z,67.37
2018-06-03T03:19:19.300Z,69.27
2018-06-03T03:19:52.596Z,68.00
2018-06-03T03:20:25.928Z,66.73
2018-06-03T03:20:59.224Z,68.13
2018-06-03T03:21:32.510Z,67.03
2018-06-03T03:22:05.810Z,66.23
2018-06-03T03:22:39.096Z,69.30
2018-06-03T03:23:12.394Z,68.60
2018-06-03T03:23:45.680Z,67.17
2018-06-03T03:24:18.968Z,68.37
2018-06-03T03:24:52.234Z,66.67
2018-06-03T03:25:25.300Z,68.87
2018-06-03T03:25:58.622Z,66.73
2018-06-03T03:26:31.954Z,68.13
2018-06-03T03:27:05.288Z,65.03
2018-06-03T03:27:38.557Z,67.27
2018-06-03T03:28:11.856Z,66.07
2018-06-03T03:28:45.160Z,64.07
2018-06-03T03:29:18.434Z,66.50
2018-06-03T03:29:51.710Z,64.10
2018-06-03T03:30:25.324Z,60.60
2018-06-03T03:30:58.636Z,64.03
2018-06-03T03:31:31.943Z,65.83
2018-06-03T03:32:05.252Z,66.43
2018-06-03T03:32:38.606Z,69.10
2018-06-03T03:33:11.887Z,65.83
2018-06-03T03:33:45.166Z,67.07
2018-06-03T03:34:18.456Z,66.40
2018-06-03T03:34:51.756Z,62.23
2018-06-03T03:35:25.056Z,63.57
2018-06-03T03:35:58.358Z,64.77
2018-06-03T03:36:31.651Z,66.80
2018-06-03T03:37:04.923Z,63.70
2018-06-03T03:37:38.521Z,64.37
2018-06-03T03:38:11.805Z,64.53
2018-06-03T03:38:45.458Z,63.27
2018-06-03T03:39:18.728Z,61.30
2018-06-03T03:39:51.992Z,61.93
2018-06-03T03:40:25.295Z,63.77
2018-06-03T03:40:58.614Z,61.73
2018-06-03T03:41:31.895Z,65.40
2018-06-03T03:42:05.204Z,64.83
2018-06-03T03:42:38.532Z,66.00
2018-06-03T03:43:11.724Z,64.83
2018-06-03T03:43:45.027Z,61.60
2018-06-03T03:44:18.297Z,60.43
2018-06-03T03:44:51.593Z,63.63
2018-06-03T03:45:24.860Z,64.23
2018-06-03T03:45:58.165Z,63.40
2018-06-03T03:46:31.438Z,61.63
2018-06-03T03:47:04.821Z,65.13
2018-06-03T03:47:38.134Z,62.00
2018-06-03T03:48:11.411Z,62.97
2018-06-03T03:48:44.688Z,59.60
2018-06-03T03:49:18.004Z,62.33
2018-06-03T03:49:51.524Z,60.70
2018-06-03T03:50:24.820Z,59.00
2018-06-03T03:50:58.110Z,59.87
2018-06-03T03:51:31.418Z,59.13
2018-06-03T03:52:04.856Z,62.90
2018-06-03T03:52:38.163Z,61.40
2018-06-03T03:53:11.481Z,62.20
2018-06-03T03:53:44.818Z,60.10
2018-06-03T03:54:18.101Z,62.60
2018-06-03T03:54:51.405Z,61.67
2018-06-03T03:55:24.703Z,59.80
2018-06-03T03:55:57.929Z,63.20
2018-06-03T03:56:31.589Z,63.30
2018-06-03T03:57:05.026Z,61.13
2018-06-03T03:57:38.384Z,59.50
2018-06-03T03:58:11.695Z,63.13
2018-06-03T03:58:45.033Z,61.67
2018-06-03T03:59:18.359Z,60.47
2018-06-03T03:59:51.678Z,63.67
2018-06-03T04:00:24.974Z,63.10
2018-06-03T04:00:58.285Z,63.17
2018-06-03T04:01:31.652Z,62.03
2018-06-03T04:02:05.297Z,61.30
2018-06-03T04:02:38.574Z,60.93
2018-06-03T04:03:11.866Z,59.87
2018-06-03T04:03:45.185Z,58.93
2018-06-03T04:04:18.478Z,61.53
2018-06-03T04:04:51.794Z,59.37
2018-06-03T04:05:25.110Z,60.40
2018-06-03T04:05:58.422Z,60.90
2018-06-03T04:06:31.728Z,60.20
2018-06-03T04:07:04.780Z,61.00
2018-06-03T04:07:38.100Z,60.50
2018-06-03T04:08:11.408Z,60.77
2018-06-03T04:08:44.718Z,61.03
2018-06-03T04:09:18.027Z,57.90
2018-06-03T04:09:51.304Z,56.83
2018-06-03T04:10:24.950Z,59.10
2018-06-03T04:10:58.232Z,60.27
2018-06-03T04:11:31.528Z,56.90
2018-06-03T04:12:05.171Z,58.00
2018-06-03T04:12:38.458Z,60.47
2018-06-03T04:13:11.806Z,56.73
2018-06-03T04:13:45.602Z,56.03
2018-06-03T04:14:18.906Z,55.83
2018-06-03T04:14:52.538Z,59.20
2018-06-03T04:15:25.820Z,60.20
2018-06-03T04:15:59.096Z,56.50
2018-06-03T04:16:32.424Z,58.63
2018-06-03T04:17:06.072Z,59.03
2018-06-03T04:17:39.381Z,58.53
2018-06-03T04:18:12.665Z,58.67
2018-06-03T04:18:46.012Z,57.60
2018-06-03T04:19:19.302Z,57.40
2018-06-03T04:19:52.637Z,55.47
2018-06-03T04:20:25.997Z,58.13
2018-06-03T04:20:59.050Z,57.10
2018-06-03T04:21:32.412Z,54.87
2018-06-03T04:22:05.719Z,56.40
2018-06-03T04:22:39.012Z,57.23
2018-06-03T04:23:12.298Z,56.30
2018-06-03T04:23:45.348Z,54.17
2018-06-03T04:24:18.660Z,56.00
2018-06-03T04:24:51.955Z,55.83
2018-06-03T04:25:25.428Z,56.27
2018-06-03T04:25:58.738Z,53.97
2018-06-03T04:26:32.017Z,54.30
2018-06-03T04:27:05.297Z,55.40
2018-06-03T04:27:38.912Z,55.77
2018-06-03T04:28:12.210Z,54.13
2018-06-03T04:28:45.484Z,54.13
2018-06-03T04:29:18.802Z,56.10
2018-06-03T04:29:52.107Z,52.60
2018-06-03T04:30:25.390Z,54.27
2018-06-03T04:30:58.694Z,56.87
2018-06-03T04:31:31.998Z,54.67
2018-06-03T04:32:06.012Z,55.47
2018-06-03T04:32:39.296Z,53.47
2018-06-03T04:33:12.573Z,56.10
2018-06-03T04:33:45.866Z,56.63
2018-06-03T04:34:19.168Z,54.50
2018-06-03T04:34:52.446Z,54.17
2018-06-03T04:35:26.050Z,54.33
2018-06-03T04:35:59.330Z,55.30
2018-06-03T04:36:32.630Z,54.17
2018-06-03T04:37:05.945Z,54.70
2018-06-03T04:37:39.265Z,56.20
2018-06-03T04:38:12.549Z,52.80
2018-06-03T04:38:45.843Z,53.83
2018-06-03T04:39:19.151Z,53.03
2018-06-03T04:39:52.459Z,54.70
2018-06-03T04:40:25.708Z,55.23
2018-06-03T04:40:59.006Z,52.53
2018-06-03T04:41:32.290Z,50.50
2018-06-03T04:42:05.976Z,52.17
2018-06-03T04:42:39.294Z,53.23
2018-06-03T04:43:12.618Z,51.87
2018-06-03T04:43:45.898Z,51.60
2018-06-03T04:44:19.184Z,49.73
2018-06-03T04:44:52.482Z,51.97
2018-06-03T04:45:25.762Z,49.83
2018-06-03T04:45:59.078Z,52.40
2018-06-03T04:46:32.380Z,49.33
2018-06-03T04:47:05.919Z,51.23
2018-06-03T04:47:39.226Z,50.83
2018-06-03T04:48:12.515Z,52.30
2018-06-03T04:48:46.184Z,49.90
2018-06-03T04:49:19.679Z,49.03
2018-06-03T04:49:52.958Z,50.70
2018-06-03T04:50:26.374Z,51.07
2018-06-03T04:50:59.979Z,50.07
2018-06-03T04:51:33.276Z,50.73
2018-06-03T04:52:06.598Z,51.27
2018-06-03T04:52:39.907Z,49.27
2018-06-03T04:53:13.202Z,48.83
2018-06-03T04:53:46.482Z,49.97
2018-06-03T04:54:19.771Z,47.90
2018-06-03T04:54:53.076Z,47.50
2018-06-03T04:55:26.345Z,47.27
2018-06-03T04:55:59.615Z,47.17
2018-06-03T04:56:32.896Z,49.10
2018-06-03T04:57:06.361Z,46.87
2018-06-03T04:57:40.021Z,46.43
2018-06-03T04:58:13.343Z,46.07
2018-06-03T04:58:46.633Z,45.97
2018-06-03T04:59:19.937Z,43.43
2018-06-03T04:59:53.220Z,46.60
2018-06-03T05:00:26.549Z,47.00
2018-06-03T05:00:59.905Z,46.10
2018-06-03T05:01:33.245Z,44.47
2018-06-03T05:02:06.674Z,45.07
2018-06-03T05:02:39.974Z,45.93
2018-06-03T05:03:13.248Z,45.60
2018-06-03T05:03:46.563Z,43.57
2018-06-03T05:04:19.843Z,45.27
2018-06-03T05:04:59.891Z,44.93
2018-06-03T05:05:33.169Z,46.70
2018-06-03T05:06:06.441Z,44.93
2018-06-03T05:06:39.786Z,46.40
2018-06-03T05:07:13.236Z,45.53
2018-06-03T05:07:46.514Z,45.23
2018-06-03T05:08:19.783Z,44.57
2018-06-03T05:08:53.094Z,42.83
2018-06-03T05:09:26.381Z,44.97
2018-06-03T05:09:59.659Z,43.30
2018-06-03T05:10:32.939Z,42.63
2018-06-03T05:11:06.279Z,44.17
2018-06-03T05:11:39.560Z,45.40
2018-06-03T05:12:12.617Z,44.27
2018-06-03T05:12:45.927Z,43.97
2018-06-03T05:13:19.181Z,44.40
2018-06-03T05:13:52.461Z,44.20
2018-06-03T05:14:25.763Z,46.67
2018-06-03T05:14:58.796Z,43.30
2018-06-03T05:15:32.099Z,46.27
2018-06-03T05:16:05.845Z,46.37
2018-06-03T05:16:39.125Z,46.17
2018-06-03T05:17:12.379Z,44.00
2018-06-03T05:17:45.706Z,44.80
2018-06-03T05:18:19.080Z,44.90
2018-06-03T05:18:52.425Z,44.90
2018-06-03T05:19:25.737Z,44.30
2018-06-03T05:19:59.037Z,46.67
2018-06-03T05:20:32.367Z,45.10
2018-06-03T05:21:05.717Z,46.17
2018-06-03T05:21:39.041Z,44.20
2018-06-03T05:22:12.348Z,46.20
2018-06-03T05:22:45.661Z,45.10
2018-06-03T05:23:19.021Z,46.50
2018-06-03T05:23:52.341Z,46.67
2018-06-03T05:24:25.693Z,47.00
2018-06-03T05:24:58.996Z,48.20
2018-06-03T05:25:32.077Z,45.37
2018-06-03T05:26:05.381Z,45.83
2018-06-03T05:26:38.989Z,46.50
2018-06-03T05:27:12.271Z,47.40
2018-06-03T05:27:45.744Z,48.43
2018-06-03T05:28:19.059Z,47.00
2018-06-03T05:28:52.363Z,47.20
2018-06-03T05:29:25.748Z,45.27
2018-06-03T05:29:59.049Z,46.87
2018-06-03T05:30:32.307Z,46.03
2018-06-03T05:31:05.369Z,47.50
2018-06-03T05:31:38.633Z,44.10
2018-06-03T05:32:11.895Z,45.20
2018-06-03T05:32:45.199Z,45.63
2018-06-03T05:33:18.522Z,45.50
2018-06-03T05:33:51.825Z,45.60
2018-06-03T05:34:25.118Z,44.87
2018-06-03T05:34:58.413Z,45.70
2018-06-03T05:35:31.719Z,44.10
2018-06-03T05:36:05.046Z,44.67
2018-06-03T05:36:38.351Z,44.47
2018-06-03T05:37:11.993Z,44.07
2018-06-03T05:37:45.261Z,44.33
2018-06-03T05:38:18.321Z,42.97
2018-06-03T05:38:51.643Z,41.97
2018-06-03T05:39:24.932Z,40.50
2018-06-03T05:39:58.279Z,41.50
2018-06-03T05:40:31.561Z,38.60
2018-06-03T05:41:04.635Z,39.77
2018-06-03T05:41:37.955Z,39.57
2018-06-03T05:42:11.259Z,39.57
2018-06-03T05:42:44.883Z,39.47
2018-06-03T05:43:18.164Z,39.60
2018-06-03T05:43:51.485Z,39.40
2018-06-03T05:44:25.086Z,37.93
2018-06-03T05:44:58.401Z,39.40
2018-06-03T05:45:31.717Z,40.10
2018-06-03T05:46:05.013Z,37.70
2018-06-03T05:46:38.311Z,37.33
2018-06-03T05:47:11.589Z,38.63
2018-06-03T05:47:44.905Z,37.00
2018-06-03T05:48:18.205Z,36.10
2018-06-03T05:48:51.566Z,38.03
2018-06-03T05:49:24.847Z,36.13
2018-06-03T05:49:58.181Z,37.33
2018-06-03T05:50:31.449Z,37.17
2018-06-03T05:51:05.021Z,36.17
2018-06-03T05:51:38.347Z,34.87
2018-06-03T05:52:11.658Z,34.97
2018-06-03T05:52:44.961Z,35.77
2018-06-03T05:53:18.263Z,33.87
2018-06-03T05:53:51.587Z,34.40
2018-06-03T05:54:24.935Z,34.20
2018-06-03T05:54:58.253Z,34.20
2018-06-03T05:55:31.909Z,33.90
2018-06-03T05:56:05.185Z,34.10
2018-06-03T05:56:38.465Z,34.63
2018-06-03T05:57:12.103Z,32.17
2018-06-03T05:57:45.419Z,32.43
2018-06-03T05:58:18.682Z,32.30
2018-06-03T05:58:51.995Z,35.17
2018-06-03T05:59:25.241Z,32.97
2018-06-03T05:59:58.477Z,33.67
2018-06-03T06:00:32.077Z,31.30
2018-06-03T06:01:05.708Z,34.10
2018-06-03T06:01:38.989Z,32.20
2018-06-03T06:02:12.271Z,34.30
2018-06-03T06:02:45.515Z,33.30
2018-06-03T06:03:18.783Z,31.70
2018-06-03T06:03:52.072Z,32.47
2018-06-03T06:04:25.345Z,31.00
2018-06-03T06:04:58.639Z,31.00
2018-06-03T06:05:31.943Z,31.27
2018-06-03T06:06:05.273Z,31.80
2018-06-03T06:06:38.608Z,31.20
2018-06-03T06:07:11.915Z,30.37
2018-06-03T06:07:45.191Z,31.10
2018-06-03T06:08:18.585Z,32.40
2018-06-03T06:08:52.235Z,29.50
2018-06-03T06:09:25.549Z,30.83
2018-06-03T06:09:58.857Z,31.40
2018-06-03T06:10:32.194Z,30.90
2018-06-03T06:11:05.475Z,28.97
2018-06-03T06:11:38.793Z,29.90
2018-06-03T06:12:12.135Z,29.60
2018-06-03T06:12:45.417Z,30.20
2018-06-03T06:13:19.043Z,29.00
2018-06-03T06:13:52.437Z,28.80
2018-06-03T06:14:25.735Z,30.47
2018-06-03T06:14:59.031Z,27.80
2018-06-03T06:15:32.429Z,29.10
2018-06-03T06:16:06.281Z,29.67
2018-06-03T06:16:39.592Z,29.67
2018-06-03T06:17:12.627Z,30.33
2018-06-03T06:17:45.914Z,29.23
2018-06-03T06:18:19.225Z,29.23
2018-06-03T06:18:52.577Z,31.30
2018-06-03T06:19:25.889Z,28.13
2018-06-03T06:19:59.249Z,29.93
2018-06-03T06:20:32.609Z,30.40
2018-06-03T06:21:06.057Z,29.83
2018-06-03T06:21:39.376Z,28.93
2018-06-03T06:22:12.722Z,28.00
2018-06-03T06:22:46.035Z,29.50
2018-06-03T06:23:19.359Z,28.70
2018-06-03T06:23:52.651Z,29.33
2018-06-03T06:24:25.945Z,27.70
2018-06-03T06:24:59.281Z,28.93
2018-06-03T06:25:32.569Z,28.60
2018-06-03T06:26:05.876Z,28.30
2018-06-03T06:26:39.576Z,30.43
2018-06-03T06:27:12.979Z,28.70
2018-06-03T06:27:46.277Z,29.20
2018-06-03T06:28:19.581Z,30.00
2018-06-03T06:28:52.901Z,29.53
2018-06-03T06:29:26.260Z,29.27
2018-06-03T06:29:59.700Z,30.83
2018-06-03T06:30:32.998Z,29.53
2018-06-03T06:31:06.441Z,29.60
2018-06-03T06:31:39.730Z,30.30
2018-06-03T06:32:13.366Z,29.63
2018-06-03T06:32:46.550Z,29.27
2018-06-03T06:33:19.657Z,29.27
2018-06-03T06:33:53.022Z,28.77
2018-06-03T06:34:26.352Z,29.47
2018-06-03T06:34:59.644Z,29.40
2018-06-03T06:35:32.981Z,29.77
2018-06-03T06:36:06.304Z,29.97
2018-06-03T06:36:39.614Z,30.30
2018-06-03T06:37:12.688Z,29.57
2018-06-03T06:37:46.004Z,29.30
2018-06-03T06:38:19.287Z,30.27
2018-06-03T06:38:52.556Z,30.17
2018-06-03T06:39:25.891Z,30.87
2018-06-03T06:39:59.196Z,30.20
2018-06-03T06:40:32.845Z,32.13
2018-06-03T06:41:06.485Z,31.07
2018-06-03T06:41:40.136Z,30.90
2018-06-03T06:42:13.552Z,29.80
2018-06-03T06:42:46.871Z,30.60
2018-06-03T06:43:20.122Z,31.00
2018-06-03T06:43:53.406Z,30.80
2018-06-03T06:44:26.733Z,30.10
2018-06-03T06:45:00.021Z,29.97
2018-06-03T06:45:33.326Z,28.00
2018-06-03T06:46:06.985Z,30.80
2018-06-03T06:46:40.288Z,29.67
2018-06-03T06:47:13.589Z,29.80
2018-06-03T06:47:46.897Z,31.20
2018-06-03T06:48:20.169Z,29.97
2018-06-03T06:48:53.492Z,31.60
2018-06-03T06:49:26.837Z,30.47
2018-06-03T06:50:00.158Z,30.30
2018-06-03T06:50:33.445Z,31.43
2018-06-03T06:51:06.725Z,28.70
2018-06-03T06:51:40.008Z,31.50
2018-06-03T06:52:13.304Z,30.27
2018-06-03T06:52:46.344Z,29.53
2018-06-03T06:53:19.653Z,30.40
2018-06-03T06:53:52.959Z,28.53
2018-06-03T06:54:26.279Z,29.83
2018-06-03T06:54:59.570Z,29.03
2018-06-03T06:55:32.871Z,29.63
2018-06-03T06:56:06.493Z,30.50
2018-06-03T06:56:39.765Z,28.63
2018-06-03T06:57:13.057Z,28.50
2018-06-03T06:57:46.351Z,28.20
2018-06-03T06:58:19.667Z,27.87
2018-06-03T06:58:52.968Z,26.73
2018-06-03T06:59:26.301Z,29.10
2018-06-03T06:59:59.991Z,30.10
2018-06-03T07:00:33.661Z,28.93
2018-06-03T07:01:07.347Z,29.30
2018-06-03T07:01:40.651Z,28.23
2018-06-03T07:02:13.981Z,27.90
2018-06-03T07:02:47.882Z,28.40
2018-06-03T07:03:21.182Z,27.47
2018-06-03T07:03:54.485Z,27.50
2018-06-03T07:04:28.025Z,27.57
2018-06-03T07:05:01.303Z,26.70
2018-06-03T07:05:34.593Z,28.10
2018-06-03T07:06:07.883Z,28.27
2018-06-03T07:06:40.958Z,27.70
2018-06-03T07:07:14.787Z,24.97
2018-06-03T07:07:48.077Z,27.13
2018-06-03T07:08:21.373Z,26.27
2018-06-03T07:08:54.722Z,26.90
2018-06-03T07:09:28.088Z,26.87
2018-06-03T07:10:01.467Z,26.03
2018-06-03T07:10:34.779Z,26.63
2018-06-03T07:11:08.090Z,24.87
2018-06-03T07:11:41.422Z,24.80
2018-06-03T07:12:14.725Z,25.37
2018-06-03T07:12:48.036Z,24.90
2018-06-03T07:13:21.346Z,26.63
2018-06-03T07:13:54.422Z,27.03